sensor_id;sensor_type;location;lat;lon;timestamp;temperature;humidity
39925;DHT22;25592;49.986;11.618;2022-10-16T00:00:58;16.90;99.90
39925;DHT22;25592;49.986;11.618;2022-10-16T00:03:44;17.00;99.90
39925;DHT22;25592;49.986;11.618;2022-10-16T00:06:30;17.00;99.90
39925;DHT22;25592;49.986;11.618;2022-10-16T00:09:15;16.90;99.90
39925;DHT22;25592;49.986;11.618;2022-10-16T00:12:01;16.80;99.90
39925;DHT22;25592;49.986;11.618;2022-10-16T00:14:46;16.70;99.90
39925;DHT22;25592;49.986;11.618;2022-10-16T00:17:31;16.80;99.90
39925;DHT22;25592;49.986;11.618;2022-10-16T00:20:17;16.80;99.90
39925;DHT22;25592;49.986;11.618;2022-10-16T00:23:03;16.80;99.90
39925;DHT22;25592;49.986;11.618;2022-10-16T00:25:57;16.80;99.90
39925;DHT22;25592;49.986;11.618;2022-10-16T00:28:48;16.80;99.90
39925;DHT22;25592;49.986;11.618;2022-10-16T00:31:34;16.90;99.90
39925;DHT22;25592;49.986;11.618;2022-10-16T00:34:19;16.80;99.90
39925;DHT22;25592;49.986;11.618;2022-10-16T00:37:05;16.80;99.90
39925;DHT22;25592;49.986;11.618;2022-10-16T00:39:50;16.80;99.90
39925;DHT22;25592;49.986;11.618;2022-10-16T00:42:36;16.70;99.90
39925;DHT22;25592;49.986;11.618;2022-10-16T00:45:21;16.80;99.90
39925;DHT22;25592;49.986;11.618;2022-10-16T00:48:11;16.90;99.90
39925;DHT22;25592;49.986;11.618;2022-10-16T00:50:59;16.90;99.90
39925;DHT22;25592;49.986;11.618;2022-10-16T00:53:44;16.90;99.90
39925;DHT22;25592;49.986;11.618;2022-10-16T00:56:30;17.00;99.90
39925;DHT22;25592;49.986;11.618;2022-10-16T00:59:19;17.00;99.90
39925;DHT22;25592;49.986;11.618;2022-10-16T01:02:08;17.00;99.90
39925;DHT22;25592;49.986;11.618;2022-10-16T01:04:54;17.00;99.90
39925;DHT22;25592;49.986;11.618;2022-10-16T01:08:14;17.00;99.90
39925;DHT22;25592;49.986;11.618;2022-10-16T01:11:19;17.00;99.90
39925;DHT22;25592;49.986;11.618;2022-10-16T01:14:19;17.00;99.90
39925;DHT22;25592;49.986;11.618;2022-10-16T01:20:35;17.00;99.90
39925;DHT22;25592;49.986;11.618;2022-10-16T01:33:09;17.00;99.90
39925;DHT22;25592;49.986;11.618;2022-10-16T01:36:10;17.00;99.90
39925;DHT22;25592;49.986;11.618;2022-10-16T01:39:00;16.90;99.90
39925;DHT22;25592;49.986;11.618;2022-10-16T01:41:54;17.00;99.90
39925;DHT22;25592;49.986;11.618;2022-10-16T01:44:41;17.00;99.90
39925;DHT22;25592;49.986;11.618;2022-10-16T01:47:27;17.10;99.90
39925;DHT22;25592;49.986;11.618;2022-10-16T01:50:16;17.10;99.90
39925;DHT22;25592;49.986;11.618;2022-10-16T01:53:04;17.10;99.90
39925;DHT22;25592;49.986;11.618;2022-10-16T01:55:52;17.10;99.90
39925;DHT22;25592;49.986;11.618;2022-10-16T01:58:44;17.00;99.90
39925;DHT22;25592;49.986;11.618;2022-10-16T02:01:33;17.10;99.90
39925;DHT22;25592;49.986;11.618;2022-10-16T02:04:36;17.10;99.90
39925;DHT22;25592;49.986;11.618;2022-10-16T02:07:22;17.10;99.90
39925;DHT22;25592;49.986;11.618;2022-10-16T02:10:08;17.10;99.90
39925;DHT22;25592;49.986;11.618;2022-10-16T02:12:59;17.10;99.90
39925;DHT22;25592;49.986;11.618;2022-10-16T02:15:45;17.00;99.90
39925;DHT22;25592;49.986;11.618;2022-10-16T02:18:31;17.00;99.90
39925;DHT22;25592;49.986;11.618;2022-10-16T02:21:26;17.10;99.90
39925;DHT22;25592;49.986;11.618;2022-10-16T02:27:18;17.10;99.90
39925;DHT22;25592;49.986;11.618;2022-10-16T02:32:53;17.20;99.90
39925;DHT22;25592;49.986;11.618;2022-10-16T02:35:41;17.20;99.90
39925;DHT22;25592;49.986;11.618;2022-10-16T02:38:27;17.10;99.90
39925;DHT22;25592;49.986;11.618;2022-10-16T02:41:13;17.10;99.90
39925;DHT22;25592;49.986;11.618;2022-10-16T02:43:59;17.10;99.90
39925;DHT22;25592;49.986;11.618;2022-10-16T02:46:44;17.10;99.90
39925;DHT22;25592;49.986;11.618;2022-10-16T02:49:29;17.10;99.90
39925;DHT22;25592;49.986;11.618;2022-10-16T02:52:15;17.10;99.90
39925;DHT22;25592;49.986;11.618;2022-10-16T02:55:00;17.00;99.90
39925;DHT22;25592;49.986;11.618;2022-10-16T02:57:45;16.90;99.90
39925;DHT22;25592;49.986;11.618;2022-10-16T03:00:31;16.90;99.90
39925;DHT22;25592;49.986;11.618;2022-10-16T03:03:16;17.00;99.90
39925;DHT22;25592;49.986;11.618;2022-10-16T03:06:02;16.90;99.90
39925;DHT22;25592;49.986;11.618;2022-10-16T03:08:48;16.90;99.90
39925;DHT22;25592;49.986;11.618;2022-10-16T03:11:33;17.00;99.90
39925;DHT22;25592;49.986;11.618;2022-10-16T03:14:18;17.00;99.90
39925;DHT22;25592;49.986;11.618;2022-10-16T03:17:03;17.00;99.90
39925;DHT22;25592;49.986;11.618;2022-10-16T03:19:49;16.90;99.90
39925;DHT22;25592;49.986;11.618;2022-10-16T03:22:34;16.90;99.90
39925;DHT22;25592;49.986;11.618;2022-10-16T03:25:20;16.80;99.90
39925;DHT22;25592;49.986;11.618;2022-10-16T03:28:05;16.80;99.90
39925;DHT22;25592;49.986;11.618;2022-10-16T03:30:50;16.80;99.90
39925;DHT22;25592;49.986;11.618;2022-10-16T03:33:36;16.80;99.90
39925;DHT22;25592;49.986;11.618;2022-10-16T03:36:22;16.80;99.90
39925;DHT22;25592;49.986;11.618;2022-10-16T03:39:07;16.70;99.90
39925;DHT22;25592;49.986;11.618;2022-10-16T03:41:52;16.80;99.90
39925;DHT22;25592;49.986;11.618;2022-10-16T03:44:37;16.80;99.90
39925;DHT22;25592;49.986;11.618;2022-10-16T03:47:23;16.80;99.90
39925;DHT22;25592;49.986;11.618;2022-10-16T03:50:09;16.80;99.90
39925;DHT22;25592;49.986;11.618;2022-10-16T03:52:55;16.80;99.90
39925;DHT22;25592;49.986;11.618;2022-10-16T03:55:44;16.70;99.90
39925;DHT22;25592;49.986;11.618;2022-10-16T03:58:29;16.70;99.90
39925;DHT22;25592;49.986;11.618;2022-10-16T04:01:14;16.70;99.90
39925;DHT22;25592;49.986;11.618;2022-10-16T04:04:00;16.70;99.90
39925;DHT22;25592;49.986;11.618;2022-10-16T04:06:45;16.70;99.90
39925;DHT22;25592;49.986;11.618;2022-10-16T04:09:31;16.80;99.90
39925;DHT22;25592;49.986;11.618;2022-10-16T04:12:16;16.80;99.90
39925;DHT22;25592;49.986;11.618;2022-10-16T04:15:02;16.90;99.90
39925;DHT22;25592;49.986;11.618;2022-10-16T04:17:47;16.90;99.90
39925;DHT22;25592;49.986;11.618;2022-10-16T04:20:33;16.90;99.90
39925;DHT22;25592;49.986;11.618;2022-10-16T04:23:18;16.90;99.90
39925;DHT22;25592;49.986;11.618;2022-10-16T04:26:05;17.00;99.90
39925;DHT22;25592;49.986;11.618;2022-10-16T04:28:50;16.80;99.90
39925;DHT22;25592;49.986;11.618;2022-10-16T04:31:36;16.70;99.90
39925;DHT22;25592;49.986;11.618;2022-10-16T04:34:21;16.80;99.90
39925;DHT22;25592;49.986;11.618;2022-10-16T04:37:07;16.90;99.90
39925;DHT22;25592;49.986;11.618;2022-10-16T04:39:53;16.90;99.90
39925;DHT22;25592;49.986;11.618;2022-10-16T04:42:38;16.90;99.90
39925;DHT22;25592;49.986;11.618;2022-10-16T04:45:24;16.90;99.90
39925;DHT22;25592;49.986;11.618;2022-10-16T04:48:09;16.90;99.90
39925;DHT22;25592;49.986;11.618;2022-10-16T04:50:55;16.90;99.90
39925;DHT22;25592;49.986;11.618;2022-10-16T04:53:40;17.00;99.90
39925;DHT22;25592;49.986;11.618;2022-10-16T04:56:26;16.90;99.90
39925;DHT22;25592;49.986;11.618;2022-10-16T04:59:11;16.90;99.90
39925;DHT22;25592;49.986;11.618;2022-10-16T05:01:56;16.90;99.90
39925;DHT22;25592;49.986;11.618;2022-10-16T05:04:42;16.90;99.90
39925;DHT22;25592;49.986;11.618;2022-10-16T05:07:27;16.90;99.90
39925;DHT22;25592;49.986;11.618;2022-10-16T05:10:13;16.90;99.90
39925;DHT22;25592;49.986;11.618;2022-10-16T05:12:58;17.00;99.90
39925;DHT22;25592;49.986;11.618;2022-10-16T05:15:47;16.90;99.90
39925;DHT22;25592;49.986;11.618;2022-10-16T05:18:33;16.90;99.90
39925;DHT22;25592;49.986;11.618;2022-10-16T05:21:19;16.80;99.90
39925;DHT22;25592;49.986;11.618;2022-10-16T05:24:04;16.80;99.90
39925;DHT22;25592;49.986;11.618;2022-10-16T05:26:50;16.80;99.90
39925;DHT22;25592;49.986;11.618;2022-10-16T05:29:35;16.80;99.90
39925;DHT22;25592;49.986;11.618;2022-10-16T05:32:21;16.90;99.90
39925;DHT22;25592;49.986;11.618;2022-10-16T05:35:06;16.90;99.90
39925;DHT22;25592;49.986;11.618;2022-10-16T05:37:56;16.90;99.90
39925;DHT22;25592;49.986;11.618;2022-10-16T05:40:42;16.90;99.90
39925;DHT22;25592;49.986;11.618;2022-10-16T05:43:28;16.90;99.90
39925;DHT22;25592;49.986;11.618;2022-10-16T05:46:15;16.90;99.90
39925;DHT22;25592;49.986;11.618;2022-10-16T05:49:00;16.90;99.90
39925;DHT22;25592;49.986;11.618;2022-10-16T05:51:45;16.90;99.90
39925;DHT22;25592;49.986;11.618;2022-10-16T05:54:31;17.00;99.90
39925;DHT22;25592;49.986;11.618;2022-10-16T05:57:16;17.00;99.90
39925;DHT22;25592;49.986;11.618;2022-10-16T06:00:03;17.00;99.90
39925;DHT22;25592;49.986;11.618;2022-10-16T06:02:48;16.90;99.90
39925;DHT22;25592;49.986;11.618;2022-10-16T06:05:34;16.90;99.90
39925;DHT22;25592;49.986;11.618;2022-10-16T06:08:20;16.90;99.90
39925;DHT22;25592;49.986;11.618;2022-10-16T06:11:08;17.00;99.90
39925;DHT22;25592;49.986;11.618;2022-10-16T06:13:55;16.90;99.90
39925;DHT22;25592;49.986;11.618;2022-10-16T06:16:42;16.90;99.90
39925;DHT22;25592;49.986;11.618;2022-10-16T06:19:27;16.90;99.90
39925;DHT22;25592;49.986;11.618;2022-10-16T06:22:12;16.90;99.90
39925;DHT22;25592;49.986;11.618;2022-10-16T06:24:58;16.90;99.90
39925;DHT22;25592;49.986;11.618;2022-10-16T06:27:43;17.00;99.90
39925;DHT22;25592;49.986;11.618;2022-10-16T06:30:29;17.00;99.90
39925;DHT22;25592;49.986;11.618;2022-10-16T06:33:14;16.90;99.90
39925;DHT22;25592;49.986;11.618;2022-10-16T06:38:53;16.80;99.90
39925;DHT22;25592;49.986;11.618;2022-10-16T06:41:39;16.90;99.90
39925;DHT22;25592;49.986;11.618;2022-10-16T06:44:24;16.90;99.90
39925;DHT22;25592;49.986;11.618;2022-10-16T06:47:09;17.00;99.90
39925;DHT22;25592;49.986;11.618;2022-10-16T06:49:55;17.00;99.90
39925;DHT22;25592;49.986;11.618;2022-10-16T06:52:40;17.00;99.90
39925;DHT22;25592;49.986;11.618;2022-10-16T06:55:26;17.00;99.90
39925;DHT22;25592;49.986;11.618;2022-10-16T06:58:11;17.00;99.90
39925;DHT22;25592;49.986;11.618;2022-10-16T07:00:57;17.10;99.90
39925;DHT22;25592;49.986;11.618;2022-10-16T07:03:44;17.20;99.90
39925;DHT22;25592;49.986;11.618;2022-10-16T07:06:32;17.10;99.90
39925;DHT22;25592;49.986;11.618;2022-10-16T07:09:18;17.20;99.90
39925;DHT22;25592;49.986;11.618;2022-10-16T07:12:03;17.10;99.90
39925;DHT22;25592;49.986;11.618;2022-10-16T07:14:49;17.10;99.90
39925;DHT22;25592;49.986;11.618;2022-10-16T07:17:37;17.10;99.90
39925;DHT22;25592;49.986;11.618;2022-10-16T07:20:22;17.10;99.90
39925;DHT22;25592;49.986;11.618;2022-10-16T07:23:07;17.10;99.90
39925;DHT22;25592;49.986;11.618;2022-10-16T07:25:54;17.10;99.90
39925;DHT22;25592;49.986;11.618;2022-10-16T07:28:39;17.20;99.90
39925;DHT22;25592;49.986;11.618;2022-10-16T07:31:26;17.20;99.90
39925;DHT22;25592;49.986;11.618;2022-10-16T07:34:12;17.30;99.90
39925;DHT22;25592;49.986;11.618;2022-10-16T07:36:58;17.20;99.90
39925;DHT22;25592;49.986;11.618;2022-10-16T07:39:43;17.20;99.90
39925;DHT22;25592;49.986;11.618;2022-10-16T07:42:29;17.30;99.90
39925;DHT22;25592;49.986;11.618;2022-10-16T07:45:14;17.30;99.90
39925;DHT22;25592;49.986;11.618;2022-10-16T07:48:00;17.30;99.90
39925;DHT22;25592;49.986;11.618;2022-10-16T07:50:45;17.30;99.90
39925;DHT22;25592;49.986;11.618;2022-10-16T07:53:31;17.40;99.90
39925;DHT22;25592;49.986;11.618;2022-10-16T07:56:17;17.40;99.90
39925;DHT22;25592;49.986;11.618;2022-10-16T07:59:04;17.40;99.90
39925;DHT22;25592;49.986;11.618;2022-10-16T08:01:50;17.50;99.90
39925;DHT22;25592;49.986;11.618;2022-10-16T08:04:36;17.50;99.90
39925;DHT22;25592;49.986;11.618;2022-10-16T08:07:21;17.50;99.90
39925;DHT22;25592;49.986;11.618;2022-10-16T08:10:14;17.50;99.90
39925;DHT22;25592;49.986;11.618;2022-10-16T08:13:01;17.50;99.90
39925;DHT22;25592;49.986;11.618;2022-10-16T08:15:46;17.70;99.90
39925;DHT22;25592;49.986;11.618;2022-10-16T08:18:32;17.70;99.90
39925;DHT22;25592;49.986;11.618;2022-10-16T08:21:22;17.70;99.90
39925;DHT22;25592;49.986;11.618;2022-10-16T08:24:08;17.70;99.90
39925;DHT22;25592;49.986;11.618;2022-10-16T08:26:53;17.80;99.90
39925;DHT22;25592;49.986;11.618;2022-10-16T08:29:39;17.90;99.90
39925;DHT22;25592;49.986;11.618;2022-10-16T08:32:25;18.10;99.90
39925;DHT22;25592;49.986;11.618;2022-10-16T08:35:13;18.40;99.90
39925;DHT22;25592;49.986;11.618;2022-10-16T08:37:59;18.50;99.90
39925;DHT22;25592;49.986;11.618;2022-10-16T08:40:44;18.60;99.90
39925;DHT22;25592;49.986;11.618;2022-10-16T08:44:27;18.60;99.90
39925;DHT22;25592;49.986;11.618;2022-10-16T08:50:12;18.50;99.90
39925;DHT22;25592;49.986;11.618;2022-10-16T08:52:58;18.50;99.90
39925;DHT22;25592;49.986;11.618;2022-10-16T08:55:46;18.60;99.90
39925;DHT22;25592;49.986;11.618;2022-10-16T08:58:34;18.60;99.90
39925;DHT22;25592;49.986;11.618;2022-10-16T09:01:21;18.60;99.90
39925;DHT22;25592;49.986;11.618;2022-10-16T09:16:44;18.60;99.90
39925;DHT22;25592;49.986;11.618;2022-10-16T09:19:40;18.70;99.90
39925;DHT22;25592;49.986;11.618;2022-10-16T09:22:29;18.70;99.90
39925;DHT22;25592;49.986;11.618;2022-10-16T09:25:18;18.80;99.90
39925;DHT22;25592;49.986;11.618;2022-10-16T09:28:05;18.70;99.90
39925;DHT22;25592;49.986;11.618;2022-10-16T09:30:51;18.70;99.90
39925;DHT22;25592;49.986;11.618;2022-10-16T09:33:37;18.80;99.90
39925;DHT22;25592;49.986;11.618;2022-10-16T09:36:26;18.70;99.90
39925;DHT22;25592;49.986;11.618;2022-10-16T09:39:13;18.80;99.90
39925;DHT22;25592;49.986;11.618;2022-10-16T09:42:00;18.90;99.90
39925;DHT22;25592;49.986;11.618;2022-10-16T09:44:50;19.00;99.90
39925;DHT22;25592;49.986;11.618;2022-10-16T09:47:40;19.00;99.90
39925;DHT22;25592;49.986;11.618;2022-10-16T09:50:28;19.00;99.90
39925;DHT22;25592;49.986;11.618;2022-10-16T09:53:15;19.00;99.90
39925;DHT22;25592;49.986;11.618;2022-10-16T09:56:02;19.20;99.90
39925;DHT22;25592;49.986;11.618;2022-10-16T09:59:03;19.20;99.90
39925;DHT22;25592;49.986;11.618;2022-10-16T10:01:53;19.10;99.90
39925;DHT22;25592;49.986;11.618;2022-10-16T10:04:50;19.10;99.90
39925;DHT22;25592;49.986;11.618;2022-10-16T10:07:43;19.20;99.90
39925;DHT22;25592;49.986;11.618;2022-10-16T10:10:33;19.10;99.90
39925;DHT22;25592;49.986;11.618;2022-10-16T10:13:20;19.10;99.90
39925;DHT22;25592;49.986;11.618;2022-10-16T10:16:06;19.10;99.90
39925;DHT22;25592;49.986;11.618;2022-10-16T10:18:58;19.20;99.90
39925;DHT22;25592;49.986;11.618;2022-10-16T10:21:45;19.30;99.90
39925;DHT22;25592;49.986;11.618;2022-10-16T10:24:30;19.40;99.90
39925;DHT22;25592;49.986;11.618;2022-10-16T10:27:17;19.40;99.90
39925;DHT22;25592;49.986;11.618;2022-10-16T10:30:17;19.30;99.90
39925;DHT22;25592;49.986;11.618;2022-10-16T10:36:16;19.40;99.90
39925;DHT22;25592;49.986;11.618;2022-10-16T10:39:17;19.40;99.90
39925;DHT22;25592;49.986;11.618;2022-10-16T10:42:45;19.30;99.90
39925;DHT22;25592;49.986;11.618;2022-10-16T10:45:41;19.30;99.90
39925;DHT22;25592;49.986;11.618;2022-10-16T10:55:20;19.60;99.90
39925;DHT22;25592;49.986;11.618;2022-10-16T11:07:28;19.90;99.90
39925;DHT22;25592;49.986;11.618;2022-10-16T11:10:24;20.10;99.90
39925;DHT22;25592;49.986;11.618;2022-10-16T11:13:34;20.20;99.90
39925;DHT22;25592;49.986;11.618;2022-10-16T11:16:27;20.30;99.90
39925;DHT22;25592;49.986;11.618;2022-10-16T11:28:42;20.40;99.90
39925;DHT22;25592;49.986;11.618;2022-10-16T11:31:40;20.40;99.90
39925;DHT22;25592;49.986;11.618;2022-10-16T11:34:34;20.60;99.90
39925;DHT22;25592;49.986;11.618;2022-10-16T11:37:25;20.70;99.90
39925;DHT22;25592;49.986;11.618;2022-10-16T11:40:23;20.70;99.90
39925;DHT22;25592;49.986;11.618;2022-10-16T11:43:26;20.70;99.90
39925;DHT22;25592;49.986;11.618;2022-10-16T11:46:21;20.70;99.90
39925;DHT22;25592;49.986;11.618;2022-10-16T11:49:30;20.60;99.90
39925;DHT22;25592;49.986;11.618;2022-10-16T11:52:23;20.70;99.90
39925;DHT22;25592;49.986;11.618;2022-10-16T11:55:20;21.00;99.90
39925;DHT22;25592;49.986;11.618;2022-10-16T12:09:47;20.90;99.90
39925;DHT22;25592;49.986;11.618;2022-10-16T12:15:29;20.90;99.90
39925;DHT22;25592;49.986;11.618;2022-10-16T12:18:34;20.90;99.90
39925;DHT22;25592;49.986;11.618;2022-10-16T12:21:30;21.00;99.90
39925;DHT22;25592;49.986;11.618;2022-10-16T12:24:34;21.20;99.90
39925;DHT22;25592;49.986;11.618;2022-10-16T12:27:30;21.20;99.90
39925;DHT22;25592;49.986;11.618;2022-10-16T12:30:23;21.10;99.90
39925;DHT22;25592;49.986;11.618;2022-10-16T12:33:22;20.90;99.90
39925;DHT22;25592;49.986;11.618;2022-10-16T12:36:26;20.90;99.90
39925;DHT22;25592;49.986;11.618;2022-10-16T12:39:23;20.80;99.90
39925;DHT22;25592;49.986;11.618;2022-10-16T12:45:31;20.90;99.90
39925;DHT22;25592;49.986;11.618;2022-10-16T12:48:21;20.70;99.90
39925;DHT22;25592;49.986;11.618;2022-10-16T12:51:32;20.40;99.90
39925;DHT22;25592;49.986;11.618;2022-10-16T12:54:28;20.40;99.90
39925;DHT22;25592;49.986;11.618;2022-10-16T13:00:45;20.60;99.90
39925;DHT22;25592;49.986;11.618;2022-10-16T13:03:58;20.90;99.90
39925;DHT22;25592;49.986;11.618;2022-10-16T13:06:59;21.10;99.90
39925;DHT22;25592;49.986;11.618;2022-10-16T13:09:53;21.30;99.90
39925;DHT22;25592;49.986;11.618;2022-10-16T13:16:17;22.00;99.90
39925;DHT22;25592;49.986;11.618;2022-10-16T13:20:06;22.20;99.90
39925;DHT22;25592;49.986;11.618;2022-10-16T13:22:40;22.30;99.90
39925;DHT22;25592;49.986;11.618;2022-10-16T13:25:56;22.60;99.90
39925;DHT22;25592;49.986;11.618;2022-10-16T13:28:44;22.70;99.90
39925;DHT22;25592;49.986;11.618;2022-10-16T13:31:30;22.60;99.90
39925;DHT22;25592;49.986;11.618;2022-10-16T13:34:19;22.80;99.90
39925;DHT22;25592;49.986;11.618;2022-10-16T13:37:20;23.10;99.90
39925;DHT22;25592;49.986;11.618;2022-10-16T13:40:19;23.40;99.90
39925;DHT22;25592;49.986;11.618;2022-10-16T13:43:05;23.20;99.90
39925;DHT22;25592;49.986;11.618;2022-10-16T13:45:59;23.00;99.90
39925;DHT22;25592;49.986;11.618;2022-10-16T13:48:59;23.00;99.90
39925;DHT22;25592;49.986;11.618;2022-10-16T13:51:56;23.20;99.90
39925;DHT22;25592;49.986;11.618;2022-10-16T13:54:42;23.40;99.90
39925;DHT22;25592;49.986;11.618;2022-10-16T13:57:28;23.50;99.90
39925;DHT22;25592;49.986;11.618;2022-10-16T14:00:25;23.70;99.90
39925;DHT22;25592;49.986;11.618;2022-10-16T14:03:15;23.60;99.90
39925;DHT22;25592;49.986;11.618;2022-10-16T14:06:03;23.50;99.90
39925;DHT22;25592;49.986;11.618;2022-10-16T14:08:56;23.60;99.90
39925;DHT22;25592;49.986;11.618;2022-10-16T14:11:51;23.60;99.90
39925;DHT22;25592;49.986;11.618;2022-10-16T14:15:00;23.70;99.90
39925;DHT22;25592;49.986;11.618;2022-10-16T14:17:49;23.70;99.90
39925;DHT22;25592;49.986;11.618;2022-10-16T14:20:35;23.80;99.90
39925;DHT22;25592;49.986;11.618;2022-10-16T14:23:50;23.90;99.90
39925;DHT22;25592;49.986;11.618;2022-10-16T14:26:42;24.00;99.90
39925;DHT22;25592;49.986;11.618;2022-10-16T14:29:34;24.20;99.90
39925;DHT22;25592;49.986;11.618;2022-10-16T14:32:26;24.40;99.90
39925;DHT22;25592;49.986;11.618;2022-10-16T14:35:33;24.60;99.90
39925;DHT22;25592;49.986;11.618;2022-10-16T14:38:19;24.50;99.90
39925;DHT22;25592;49.986;11.618;2022-10-16T14:41:06;24.50;99.90
39925;DHT22;25592;49.986;11.618;2022-10-16T14:43:54;24.60;99.90
39925;DHT22;25592;49.986;11.618;2022-10-16T14:46:41;24.60;99.90
39925;DHT22;25592;49.986;11.618;2022-10-16T14:49:27;24.50;99.90
39925;DHT22;25592;49.986;11.618;2022-10-16T14:52:13;24.60;99.90
39925;DHT22;25592;49.986;11.618;2022-10-16T14:54:59;24.80;99.90
39925;DHT22;25592;49.986;11.618;2022-10-16T14:57:45;25.00;99.90
39925;DHT22;25592;49.986;11.618;2022-10-16T15:00:31;24.80;99.90
39925;DHT22;25592;49.986;11.618;2022-10-16T15:03:16;24.50;99.90
39925;DHT22;25592;49.986;11.618;2022-10-16T15:06:02;24.60;99.90
39925;DHT22;25592;49.986;11.618;2022-10-16T15:08:47;24.70;99.90
39925;DHT22;25592;49.986;11.618;2022-10-16T15:11:33;24.80;99.90
39925;DHT22;25592;49.986;11.618;2022-10-16T15:14:19;24.80;99.90
39925;DHT22;25592;49.986;11.618;2022-10-16T15:17:04;24.70;99.90
39925;DHT22;25592;49.986;11.618;2022-10-16T15:19:50;24.60;99.90
39925;DHT22;25592;49.986;11.618;2022-10-16T15:22:36;24.40;99.90
39925;DHT22;25592;49.986;11.618;2022-10-16T15:25:42;24.20;99.90
39925;DHT22;25592;49.986;11.618;2022-10-16T15:28:27;24.00;99.90
39925;DHT22;25592;49.986;11.618;2022-10-16T15:31:13;23.80;99.90
39925;DHT22;25592;49.986;11.618;2022-10-16T15:33:58;23.50;99.90
39925;DHT22;25592;49.986;11.618;2022-10-16T15:36:48;23.40;99.90
39925;DHT22;25592;49.986;11.618;2022-10-16T15:39:34;23.20;99.90
39925;DHT22;25592;49.986;11.618;2022-10-16T15:42:25;23.10;99.90
39925;DHT22;25592;49.986;11.618;2022-10-16T15:45:12;22.90;99.90
39925;DHT22;25592;49.986;11.618;2022-10-16T15:47:57;22.80;99.90
39925;DHT22;25592;49.986;11.618;2022-10-16T15:50:43;22.70;99.90
39925;DHT22;25592;49.986;11.618;2022-10-16T15:53:28;22.50;99.90
39925;DHT22;25592;49.986;11.618;2022-10-16T15:56:14;22.30;99.90
39925;DHT22;25592;49.986;11.618;2022-10-16T15:59:00;22.20;99.90
39925;DHT22;25592;49.986;11.618;2022-10-16T16:01:47;22.10;99.90
39925;DHT22;25592;49.986;11.618;2022-10-16T16:04:32;22.00;99.90
39925;DHT22;25592;49.986;11.618;2022-10-16T16:07:34;21.80;99.90
39925;DHT22;25592;49.986;11.618;2022-10-16T16:10:19;21.80;99.90
39925;DHT22;25592;49.986;11.618;2022-10-16T16:13:06;21.70;99.90
39925;DHT22;25592;49.986;11.618;2022-10-16T16:15:51;21.60;99.90
39925;DHT22;25592;49.986;11.618;2022-10-16T16:18:37;21.50;99.90
39925;DHT22;25592;49.986;11.618;2022-10-16T16:21:23;21.50;99.90
39925;DHT22;25592;49.986;11.618;2022-10-16T16:24:08;21.40;99.90
39925;DHT22;25592;49.986;11.618;2022-10-16T16:26:53;21.40;99.90
39925;DHT22;25592;49.986;11.618;2022-10-16T16:29:39;21.30;99.90
39925;DHT22;25592;49.986;11.618;2022-10-16T16:32:25;21.30;99.90
39925;DHT22;25592;49.986;11.618;2022-10-16T16:35:10;21.20;99.90
39925;DHT22;25592;49.986;11.618;2022-10-16T16:37:56;21.10;99.90
39925;DHT22;25592;49.986;11.618;2022-10-16T16:40:41;21.10;99.90
39925;DHT22;25592;49.986;11.618;2022-10-16T16:43:27;21.00;99.90
39925;DHT22;25592;49.986;11.618;2022-10-16T16:46:13;21.00;99.90
39925;DHT22;25592;49.986;11.618;2022-10-16T16:49:00;20.80;99.90
39925;DHT22;25592;49.986;11.618;2022-10-16T16:51:46;20.80;99.90
39925;DHT22;25592;49.986;11.618;2022-10-16T16:54:31;20.70;99.90
39925;DHT22;25592;49.986;11.618;2022-10-16T16:57:22;20.70;99.90
39925;DHT22;25592;49.986;11.618;2022-10-16T17:00:08;20.60;99.90
39925;DHT22;25592;49.986;11.618;2022-10-16T17:02:53;20.60;99.90
39925;DHT22;25592;49.986;11.618;2022-10-16T17:05:39;20.60;99.90
39925;DHT22;25592;49.986;11.618;2022-10-16T17:08:24;20.60;99.90
39925;DHT22;25592;49.986;11.618;2022-10-16T17:11:18;20.50;99.90
39925;DHT22;25592;49.986;11.618;2022-10-16T17:14:03;20.50;99.90
39925;DHT22;25592;49.986;11.618;2022-10-16T17:16:49;20.50;99.90
39925;DHT22;25592;49.986;11.618;2022-10-16T17:19:34;20.50;99.90
39925;DHT22;25592;49.986;11.618;2022-10-16T17:22:20;20.40;99.90
39925;DHT22;25592;49.986;11.618;2022-10-16T17:25:05;20.40;99.90
39925;DHT22;25592;49.986;11.618;2022-10-16T17:27:52;20.30;99.90
39925;DHT22;25592;49.986;11.618;2022-10-16T17:30:41;20.30;99.90
39925;DHT22;25592;49.986;11.618;2022-10-16T17:33:27;20.30;99.90
39925;DHT22;25592;49.986;11.618;2022-10-16T17:36:12;20.30;99.90
39925;DHT22;25592;49.986;11.618;2022-10-16T17:39:00;20.20;99.90
39925;DHT22;25592;49.986;11.618;2022-10-16T17:41:48;20.20;99.90
39925;DHT22;25592;49.986;11.618;2022-10-16T17:44:34;20.30;99.90
39925;DHT22;25592;49.986;11.618;2022-10-16T17:47:19;20.20;99.90
39925;DHT22;25592;49.986;11.618;2022-10-16T17:50:05;20.10;99.90
39925;DHT22;25592;49.986;11.618;2022-10-16T17:52:50;20.10;99.90
39925;DHT22;25592;49.986;11.618;2022-10-16T17:55:40;20.10;99.90
39925;DHT22;25592;49.986;11.618;2022-10-16T17:58:25;20.10;99.90
39925;DHT22;25592;49.986;11.618;2022-10-16T18:01:19;20.20;99.90
39925;DHT22;25592;49.986;11.618;2022-10-16T18:04:11;20.10;99.90
39925;DHT22;25592;49.986;11.618;2022-10-16T18:06:58;20.10;99.90
39925;DHT22;25592;49.986;11.618;2022-10-16T18:09:44;20.10;99.90
39925;DHT22;25592;49.986;11.618;2022-10-16T18:12:49;20.10;99.90
39925;DHT22;25592;49.986;11.618;2022-10-16T18:15:35;20.10;99.90
39925;DHT22;25592;49.986;11.618;2022-10-16T18:18:20;20.10;99.90
39925;DHT22;25592;49.986;11.618;2022-10-16T18:21:14;20.00;99.90
39925;DHT22;25592;49.986;11.618;2022-10-16T18:24:00;20.00;99.90
39925;DHT22;25592;49.986;11.618;2022-10-16T18:26:45;20.00;99.90
39925;DHT22;25592;49.986;11.618;2022-10-16T18:29:33;20.00;99.90
39925;DHT22;25592;49.986;11.618;2022-10-16T18:32:18;20.00;99.90
39925;DHT22;25592;49.986;11.618;2022-10-16T18:35:04;20.00;99.90
39925;DHT22;25592;49.986;11.618;2022-10-16T18:37:49;19.90;99.90
39925;DHT22;25592;49.986;11.618;2022-10-16T18:40:37;19.90;99.90
39925;DHT22;25592;49.986;11.618;2022-10-16T18:43:22;19.90;99.90
39925;DHT22;25592;49.986;11.618;2022-10-16T18:46:17;19.80;99.90
39925;DHT22;25592;49.986;11.618;2022-10-16T18:49:03;19.80;99.90
39925;DHT22;25592;49.986;11.618;2022-10-16T18:51:48;19.80;99.90
39925;DHT22;25592;49.986;11.618;2022-10-16T18:54:36;19.80;99.90
39925;DHT22;25592;49.986;11.618;2022-10-16T18:57:22;19.80;99.90
39925;DHT22;25592;49.986;11.618;2022-10-16T19:00:08;19.70;99.90